createdAt,value
2022-10-10T00:00:56.370Z,11.20
2022-10-10T00:06:00.214Z,11.20
2022-10-10T00:11:02.645Z,11.10
2022-10-10T00:16:05.785Z,11.10
2022-10-10T00:21:10.230Z,11.00
2022-10-10T00:26:17.718Z,11.00
2022-10-10T00:31:21.651Z,10.90
2022-10-10T00:36:25.348Z,10.80
2022-10-10T00:41:27.671Z,10.80
2022-10-10T00:46:30.157Z,10.80
2022-10-10T00:51:34.198Z,10.80
2022-10-10T00:56:40.165Z,10.70
2022-10-10T01:01:43.227Z,10.70
2022-10-10T01:06:47.044Z,10.60
2022-10-10T01:11:55.571Z,10.60
2022-10-10T01:17:06.747Z,10.50
2022-10-10T01:22:21.444Z,10.50
2022-10-10T01:27:31.619Z,10.50
2022-10-10T01:32:53.619Z,10.40
2022-10-10T01:38:17.224Z,10.30
2022-10-10T01:43:26.928Z,10.30
2022-10-10T01:48:45.902Z,10.20
2022-10-10T01:54:06.916Z,10.10
2022-10-10T01:59:30.201Z,10.10
2022-10-10T02:04:51.900Z,10.10
2022-10-10T02:09:58.565Z,10.10
2022-10-10T02:15:10.561Z,10.00
2022-10-10T02:20:25.293Z,10.10
2022-10-10T02:25:39.364Z,10.10
2022-10-10T02:30:50.247Z,10.10
2022-10-10T02:35:55.355Z,10.10
2022-10-10T02:41:02.666Z,10.10
2022-10-10T02:46:09.189Z,10.10
2022-10-10T02:51:17.630Z,10.10
2022-10-10T02:56:20.509Z,10.10
2022-10-10T03:01:24.986Z,10.10
2022-10-10T03:06:29.097Z,10.10
2022-10-10T03:11:42.483Z,10.10
2022-10-10T03:16:53.530Z,10.10
2022-10-10T03:22:01.638Z,10.10
2022-10-10T03:27:04.143Z,10.00
2022-10-10T03:32:11.293Z,10.00
2022-10-10T03:37:19.156Z,9.90
2022-10-10T03:42:24.837Z,9.90
2022-10-10T03:47:27.583Z,9.80
2022-10-10T03:52:34.550Z,9.80
2022-10-10T03:57:38.420Z,9.80
2022-10-10T04:02:49.872Z,9.80
2022-10-10T04:08:05.426Z,9.80
2022-10-10T04:13:10.228Z,9.80
2022-10-10T04:18:12.863Z,9.90
2022-10-10T04:23:19.391Z,9.80
2022-10-10T04:28:21.917Z,9.80
2022-10-10T04:34:12.101Z,9.80
2022-10-10T04:39:19.030Z,9.80
2022-10-10T04:44:25.484Z,9.80
2022-10-10T04:49:40.536Z,9.80
2022-10-10T04:54:47.653Z,9.80
2022-10-10T04:59:52.782Z,9.70
2022-10-10T05:04:55.191Z,9.70
2022-10-10T05:10:16.518Z,9.70
2022-10-10T05:15:19.684Z,9.70
2022-10-10T05:20:22.413Z,9.70
2022-10-10T05:30:52.711Z,9.60
2022-10-10T05:36:17.303Z,9.60
2022-10-10T05:41:30.400Z,9.50
2022-10-10T05:46:34.696Z,9.50
2022-10-10T05:51:37.501Z,9.50
2022-10-10T05:56:41.587Z,9.40
2022-10-10T06:02:01.656Z,9.40
2022-10-10T06:07:04.167Z,9.40
2022-10-10T06:12:08.580Z,9.50
2022-10-10T06:17:10.903Z,9.50
2022-10-10T06:22:13.171Z,9.60
2022-10-10T06:27:17.002Z,9.70
2022-10-10T06:32:19.271Z,9.80
2022-10-10T06:37:21.740Z,10.20
2022-10-10T06:42:25.372Z,10.70
2022-10-10T06:47:27.655Z,11.50
2022-10-10T06:52:30.407Z,12.40
2022-10-10T06:57:34.144Z,13.30
2022-10-10T07:02:36.531Z,14.10
2022-10-10T07:07:38.809Z,14.60
2022-10-10T07:12:52.272Z,15.00
2022-10-10T07:17:58.592Z,15.40
2022-10-10T07:23:00.897Z,15.70
2022-10-10T07:28:04.771Z,16.10
2022-10-10T07:33:07.408Z,16.50
2022-10-10T07:38:11.859Z,17.00
2022-10-10T07:43:16.276Z,17.50
2022-10-10T07:48:18.924Z,18.00
2022-10-10T07:53:21.689Z,18.70
2022-10-10T07:58:25.373Z,19.40
2022-10-10T08:03:27.600Z,20.00
2022-10-10T08:08:30.024Z,20.60
2022-10-10T08:13:34.317Z,21.10
2022-10-10T08:18:36.639Z,21.60
2022-10-10T08:23:39.349Z,22.00
2022-10-10T08:28:44.187Z,22.20
2022-10-10T08:33:48.048Z,22.30
2022-10-10T08:38:51.065Z,22.50
2022-10-10T08:43:58.342Z,22.80
2022-10-10T08:49:11.713Z,23.10
2022-10-10T08:54:18.841Z,23.30
2022-10-10T08:59:27.306Z,23.60
2022-10-10T09:04:29.719Z,23.80
2022-10-10T09:09:40.668Z,23.80
2022-10-10T09:14:53.012Z,23.90
2022-10-10T09:20:07.300Z,24.00
2022-10-10T09:25:19.214Z,24.10
2022-10-10T09:30:23.256Z,24.20
2022-10-10T09:35:28.564Z,24.20
2022-10-10T09:40:36.661Z,24.40
2022-10-10T09:45:47.732Z,24.60
2022-10-10T09:50:50.192Z,24.70
2022-10-10T09:55:54.495Z,24.80
2022-10-10T10:01:12.931Z,24.60
2022-10-10T10:06:16.544Z,24.40
2022-10-10T10:11:28.921Z,23.90
2022-10-10T10:16:38.520Z,23.50
2022-10-10T10:21:50.388Z,23.20
2022-10-10T10:26:53.056Z,23.10
2022-10-10T10:32:04.073Z,22.90
2022-10-10T10:37:16.585Z,22.60
2022-10-10T10:42:33.008Z,22.40
2022-10-10T10:47:49.721Z,22.20
2022-10-10T10:52:59.988Z,22.10
2022-10-10T11:04:15.953Z,21.80
2022-10-10T11:09:49.098Z,21.70
2022-10-10T11:14:58.137Z,21.60
2022-10-10T11:20:07.237Z,21.50
2022-10-10T11:25:19.023Z,21.50
2022-10-10T11:30:23.831Z,21.40
2022-10-10T11:35:35.008Z,21.30
2022-10-10T11:40:45.677Z,21.20
2022-10-10T11:45:56.009Z,21.30
2022-10-10T11:51:12.876Z,21.30
2022-10-10T11:56:26.149Z,21.40
2022-10-10T12:01:32.983Z,21.90
2022-10-10T12:06:42.350Z,22.30
2022-10-10T12:11:49.678Z,22.60
2022-10-10T12:16:52.481Z,22.50
2022-10-10T12:22:02.360Z,22.30
2022-10-10T12:27:44.599Z,21.90
2022-10-10T12:32:48.212Z,21.50
2022-10-10T12:38:17.030Z,21.20
2022-10-10T12:43:25.041Z,20.90
2022-10-10T12:48:27.780Z,20.70
2022-10-10T12:53:34.462Z,20.50
2022-10-10T12:58:41.249Z,20.30
2022-10-10T13:03:48.421Z,20.10
2022-10-10T13:08:55.712Z,19.90
2022-10-10T13:13:58.419Z,19.70
2022-10-10T13:19:01.167Z,19.60
2022-10-10T13:24:07.174Z,19.50
2022-10-10T13:29:20.037Z,19.30
2022-10-10T13:34:27.461Z,19.10
2022-10-10T13:39:33.362Z,18.90
2022-10-10T13:44:49.838Z,18.80
2022-10-10T13:49:56.906Z,18.70
2022-10-10T14:00:29.205Z,18.60
2022-10-10T14:05:32.496Z,18.50
2022-10-10T14:10:35.183Z,18.30
2022-10-10T14:15:46.327Z,18.10
2022-10-10T14:20:50.132Z,18.00
2022-10-10T14:25:52.426Z,17.90
2022-10-10T14:30:56.361Z,17.90
2022-10-10T14:35:59.983Z,17.80
2022-10-10T14:41:02.879Z,17.80
2022-10-10T14:46:15.291Z,17.80
2022-10-10T14:51:34.764Z,17.60
2022-10-10T14:57:07.437Z,17.50
2022-10-10T15:02:01.923Z,17.50
2022-10-10T15:07:13.768Z,17.30
2022-10-10T15:12:16.985Z,17.20
2022-10-10T15:17:20.934Z,17.10
2022-10-10T15:22:23.420Z,16.90
2022-10-10T15:27:26.144Z,16.80
2022-10-10T15:34:26.729Z,16.60
2022-10-10T15:39:29.610Z,16.30
2022-10-10T15:44:32.284Z,16.30
2022-10-10T15:49:56.433Z,16.20
2022-10-10T15:55:23.582Z,16.30
2022-10-10T16:00:26.409Z,16.30
2022-10-10T16:05:30.324Z,16.30
2022-10-10T16:10:37.426Z,16.40
2022-10-10T16:15:39.852Z,16.30
2022-10-10T16:20:43.413Z,16.30
2022-10-10T16:25:45.755Z,16.20
2022-10-10T16:30:47.955Z,16.10
2022-10-10T16:35:51.977Z,16.00
2022-10-10T16:40:58.512Z,15.90
2022-10-10T16:46:02.573Z,15.80
2022-10-10T16:51:08.926Z,15.70
2022-10-10T16:56:12.589Z,15.50
2022-10-10T17:01:17.923Z,15.40
2022-10-10T17:06:23.526Z,15.30
2022-10-10T17:11:27.644Z,15.20
2022-10-10T17:21:54.271Z,14.90
2022-10-10T17:26:58.113Z,14.70
2022-10-10T17:32:06.051Z,14.60
2022-10-10T17:37:10.764Z,14.50
2022-10-10T17:42:13.024Z,14.50
2022-10-10T17:47:15.686Z,14.30
2022-10-10T17:52:21.380Z,14.30
2022-10-10T17:57:24.267Z,14.20
2022-10-10T18:02:26.904Z,14.20
2022-10-10T18:07:30.748Z,14.10
2022-10-10T18:12:33.009Z,14.00
2022-10-10T18:17:35.254Z,14.00
2022-10-10T18:22:39.829Z,13.90
2022-10-10T18:27:42.168Z,13.90
2022-10-10T18:32:44.487Z,13.80
2022-10-10T18:37:48.669Z,13.70
2022-10-10T18:42:50.998Z,13.60
2022-10-10T18:47:53.267Z,13.50
2022-10-10T18:52:57.085Z,13.50
2022-10-10T18:58:00.033Z,13.50
2022-10-10T19:03:04.370Z,13.40
2022-10-10T19:08:08.913Z,13.40
2022-10-10T19:13:12.212Z,13.30
2022-10-10T19:18:14.606Z,13.30
2022-10-10T19:23:18.278Z,13.20
2022-10-10T19:28:20.659Z,13.10
2022-10-10T19:33:23.536Z,13.10
2022-10-10T19:38:28.140Z,13.10
2022-10-10T19:43:30.545Z,13.10
2022-10-10T19:48:33.638Z,13.20
2022-10-10T19:53:38.644Z,13.20
2022-10-10T19:58:42.320Z,13.30
2022-10-10T20:03:45.307Z,13.20
2022-10-10T20:08:49.700Z,13.10
2022-10-10T20:13:52.179Z,13.10
2022-10-10T20:18:55.192Z,13.00
2022-10-10T20:24:00.205Z,13.00
2022-10-10T20:29:03.830Z,13.00
2022-10-10T20:34:06.987Z,13.00
2022-10-10T20:39:14.093Z,13.00
2022-10-10T20:44:16.412Z,13.10
2022-10-10T20:49:20.910Z,13.00
2022-10-10T20:54:25.085Z,13.00
2022-10-10T20:59:27.646Z,12.90
2022-10-10T21:04:30.370Z,12.70
2022-10-10T21:09:34.119Z,12.60
2022-10-10T21:14:36.343Z,12.50
2022-10-10T21:19:38.587Z,12.30
2022-10-10T21:24:42.442Z,12.30
2022-10-10T21:29:44.590Z,12.20
2022-10-10T21:34:47.107Z,12.10
2022-10-10T21:39:50.817Z,12.00
2022-10-10T21:44:52.952Z,11.90
2022-10-10T21:49:55.186Z,11.80
2022-10-10T21:54:59.222Z,11.70
2022-10-10T22:00:01.522Z,11.60
2022-10-10T22:05:03.993Z,11.50
2022-10-10T22:10:10.603Z,11.50
2022-10-10T22:15:13.855Z,11.40
2022-10-10T22:20:16.527Z,11.40
2022-10-10T22:25:20.492Z,11.30
2022-10-10T22:30:22.778Z,11.30
2022-10-10T22:35:25.081Z,11.20
2022-10-10T22:40:29.927Z,11.10
2022-10-10T22:45:32.729Z,11.10
2022-10-10T22:50:35.145Z,11.00
2022-10-10T22:55:39.216Z,11.00
2022-10-10T23:00:41.522Z,11.00
2022-10-10T23:05:44.174Z,11.00
2022-10-10T23:10:48.141Z,11.00
2022-10-10T23:15:50.573Z,10.90
2022-10-10T23:20:52.833Z,10.90
2022-10-10T23:25:59.505Z,10.90
2022-10-10T23:31:02.643Z,10.80
2022-10-10T23:36:08.536Z,10.80
2022-10-10T23:41:13.406Z,10.80
2022-10-10T23:46:15.763Z,10.70
2022-10-10T23:51:18.401Z,10.70
2022-10-10T23:56:22.829Z,10.70
